createdAt,value
2018-09-13T00:00:05.203Z,53.50
2018-09-13T00:01:09.465Z,53.50
2018-09-13T00:02:13.707Z,54.10
2018-09-13T00:03:17.985Z,53.50
2018-09-13T00:04:22.282Z,53.50
2018-09-13T00:05:26.773Z,53.50
2018-09-13T00:06:31.250Z,53.50
2018-09-13T00:07:35.560Z,54.20
2018-09-13T00:08:40.047Z,53.50
2018-09-13T00:09:45.276Z,53.60
2018-09-13T00:10:50.523Z,53.50
2018-09-13T00:11:54.964Z,53.50
2018-09-13T00:13:00.286Z,53.50
2018-09-13T00:14:04.778Z,53.50
2018-09-13T00:15:09.287Z,53.50
2018-09-13T00:16:13.571Z,53.50
2018-09-13T00:17:19.146Z,53.50
2018-09-13T00:18:23.587Z,53.50
2018-09-13T00:19:27.917Z,53.50
2018-09-13T00:20:32.418Z,53.50
2018-09-13T00:21:36.886Z,53.50
2018-09-13T00:22:41.206Z,53.50
2018-09-13T00:23:45.683Z,53.50
2018-09-13T00:24:49.995Z,54.20
2018-09-13T00:25:54.285Z,53.50
2018-09-13T00:26:59.497Z,53.50
2018-09-13T00:28:04.673Z,53.50
2018-09-13T00:29:09.680Z,54.20
2018-09-13T00:30:14.018Z,53.60
2018-09-13T00:31:19.683Z,54.20
2018-09-13T00:32:24.852Z,53.50
2018-09-13T00:33:30.078Z,53.50
2018-09-13T00:34:35.271Z,53.50
2018-09-13T00:35:39.551Z,53.50
2018-09-13T00:36:44.010Z,53.50
2018-09-13T00:37:48.425Z,53.60
2018-09-13T00:38:52.733Z,53.50
2018-09-13T00:39:57.061Z,53.50
2018-09-13T00:41:02.275Z,53.60
2018-09-13T00:42:06.606Z,53.60
2018-09-13T00:43:11.786Z,53.60
2018-09-13T00:44:16.024Z,53.60
2018-09-13T00:45:20.311Z,53.60
2018-09-13T00:46:24.838Z,53.60
2018-09-13T00:47:29.970Z,53.60
2018-09-13T00:48:34.217Z,53.60
2018-09-13T00:49:39.393Z,53.60
2018-09-13T00:50:43.958Z,53.60
2018-09-13T00:51:48.441Z,53.60
2018-09-13T00:52:52.696Z,53.60
2018-09-13T00:53:56.973Z,53.60
2018-09-13T00:55:01.251Z,53.60
2018-09-13T00:56:05.522Z,53.60
2018-09-13T00:57:09.760Z,53.60
2018-09-13T00:58:14.068Z,53.60
2018-09-13T00:59:18.685Z,53.60
2018-09-13T01:00:22.997Z,53.60
2018-09-13T01:01:27.257Z,54.20
2018-09-13T01:02:32.426Z,53.60
2018-09-13T01:03:37.572Z,53.60
2018-09-13T01:04:41.884Z,53.60
2018-09-13T01:05:47.032Z,53.60
2018-09-13T01:06:51.393Z,53.60
2018-09-13T01:07:55.848Z,53.60
2018-09-13T01:09:00.087Z,53.60
2018-09-13T01:10:04.647Z,53.60
2018-09-13T01:11:08.908Z,53.60
2018-09-13T01:12:13.191Z,53.60
2018-09-13T01:13:17.624Z,53.60
2018-09-13T01:14:21.884Z,53.60
2018-09-13T01:15:26.358Z,53.60
2018-09-13T01:16:31.514Z,53.60
2018-09-13T01:17:35.813Z,53.60
2018-09-13T01:18:40.097Z,53.60
2018-09-13T01:19:44.494Z,53.60
2018-09-13T01:20:48.807Z,53.60
2018-09-13T01:21:53.138Z,53.60
2018-09-13T01:22:57.464Z,53.60
2018-09-13T01:24:02.628Z,53.60
2018-09-13T01:25:06.936Z,53.60
2018-09-13T01:26:11.393Z,53.60
2018-09-13T01:27:16.529Z,53.60
2018-09-13T01:28:20.793Z,53.60
2018-09-13T01:29:25.949Z,53.60
2018-09-13T01:30:31.092Z,53.60
2018-09-13T01:31:35.589Z,53.60
2018-09-13T01:32:39.824Z,53.60
2018-09-13T01:33:44.043Z,53.60
2018-09-13T01:34:49.209Z,53.60
2018-09-13T01:35:54.500Z,53.60
2018-09-13T01:36:58.975Z,53.60
2018-09-13T01:38:03.198Z,53.60
2018-09-13T01:39:07.512Z,53.60
2018-09-13T01:40:12.797Z,53.60
2018-09-13T01:41:17.296Z,53.60
2018-09-13T01:42:21.724Z,53.60
2018-09-13T01:43:26.874Z,53.60
2018-09-13T01:44:31.172Z,53.50
2018-09-13T01:45:36.395Z,53.60
2018-09-13T01:46:40.670Z,53.50
2018-09-13T01:47:45.874Z,53.50
2018-09-13T01:48:50.145Z,53.50
2018-09-13T01:49:54.430Z,53.50
2018-09-13T01:50:58.731Z,53.50
2018-09-13T01:52:03.083Z,53.50
2018-09-13T01:53:07.441Z,54.10
2018-09-13T01:54:12.699Z,53.60
2018-09-13T01:55:17.036Z,53.50
2018-09-13T01:56:21.295Z,53.50
2018-09-13T01:57:26.479Z,53.50
2018-09-13T01:58:30.932Z,53.50
2018-09-13T01:59:35.439Z,53.50
2018-09-13T02:00:39.999Z,53.50
2018-09-13T02:01:44.363Z,53.50
2018-09-13T02:02:48.839Z,53.50
2018-09-13T02:03:53.171Z,53.40
2018-09-13T02:04:57.711Z,53.50
2018-09-13T02:06:02.908Z,53.40
2018-09-13T02:07:07.542Z,53.40
2018-09-13T02:08:12.784Z,53.40
2018-09-13T02:09:18.047Z,53.40
2018-09-13T02:10:22.571Z,53.40
2018-09-13T02:11:27.079Z,53.40
2018-09-13T02:12:31.465Z,53.50
2018-09-13T02:13:35.832Z,53.40
2018-09-13T02:14:40.155Z,54.10
2018-09-13T02:15:45.303Z,53.40
2018-09-13T02:16:49.629Z,53.40
2018-09-13T02:17:53.961Z,53.40
2018-09-13T02:18:58.494Z,53.40
2018-09-13T02:20:02.796Z,53.40
2018-09-13T02:21:07.225Z,53.40
2018-09-13T02:22:11.723Z,53.40
2018-09-13T02:23:16.241Z,53.40
2018-09-13T02:24:20.544Z,53.40
2018-09-13T02:25:24.917Z,53.40
2018-09-13T02:26:29.222Z,53.40
2018-09-13T02:27:33.538Z,53.40
2018-09-13T02:28:37.949Z,53.30
2018-09-13T02:29:43.208Z,53.30
2018-09-13T02:30:48.370Z,53.40
2018-09-13T02:31:53.752Z,53.30
2018-09-13T02:32:58.045Z,53.30
2018-09-13T02:34:02.529Z,53.30
2018-09-13T02:35:06.838Z,53.30
2018-09-13T02:36:11.355Z,53.30
2018-09-13T02:37:15.676Z,53.30
2018-09-13T02:38:20.898Z,53.30
2018-09-13T02:39:25.218Z,53.40
2018-09-13T02:40:29.906Z,53.30
2018-09-13T02:41:34.293Z,53.30
2018-09-13T02:42:38.735Z,53.30
2018-09-13T02:43:43.246Z,53.30
2018-09-13T02:44:47.654Z,53.30
2018-09-13T02:45:51.974Z,53.30
2018-09-13T02:46:56.294Z,53.30
2018-09-13T02:48:00.650Z,53.30
2018-09-13T02:49:05.040Z,53.30
2018-09-13T02:50:09.528Z,53.20
2018-09-13T02:51:13.890Z,53.90
2018-09-13T02:52:18.412Z,53.20
2018-09-13T02:53:22.803Z,53.20
2018-09-13T02:54:27.172Z,53.20
2018-09-13T02:55:32.366Z,53.20
2018-09-13T02:56:36.983Z,53.20
2018-09-13T02:57:41.502Z,53.20
2018-09-13T02:58:46.701Z,53.20
2018-09-13T02:59:51.207Z,53.20
2018-09-13T03:00:55.604Z,53.20
2018-09-13T03:01:59.964Z,53.20
2018-09-13T03:03:04.537Z,53.20
2018-09-13T03:04:08.896Z,53.20
2018-09-13T03:05:13.252Z,53.20
2018-09-13T03:06:18.470Z,53.20
2018-09-13T03:07:23.064Z,53.20
2018-09-13T03:08:27.487Z,53.20
2018-09-13T03:09:31.882Z,53.20
2018-09-13T03:10:36.151Z,53.20
2018-09-13T03:11:40.438Z,53.20
2018-09-13T03:12:44.681Z,53.10
2018-09-13T03:13:48.922Z,53.20
2018-09-13T03:14:53.443Z,53.10
2018-09-13T03:15:57.716Z,53.20
2018-09-13T03:17:02.936Z,53.10
2018-09-13T03:18:07.256Z,53.20
2018-09-13T03:19:12.446Z,53.10
2018-09-13T03:20:16.737Z,53.00
2018-09-13T03:21:21.371Z,53.80
2018-09-13T03:22:25.683Z,53.10
2018-09-13T03:23:29.993Z,53.10
2018-09-13T03:24:34.480Z,53.10
2018-09-13T03:25:39.052Z,53.10
2018-09-13T03:26:43.411Z,53.10
2018-09-13T03:27:47.836Z,53.10
2018-09-13T03:28:52.210Z,53.10
2018-09-13T03:29:56.720Z,53.10
2018-09-13T03:31:01.304Z,53.10
2018-09-13T03:32:05.741Z,53.10
2018-09-13T03:33:10.064Z,53.10
2018-09-13T03:34:14.436Z,53.10
2018-09-13T03:35:18.693Z,53.10
2018-09-13T03:36:23.198Z,53.10
2018-09-13T03:37:28.462Z,53.10
2018-09-13T03:38:32.758Z,53.10
2018-09-13T03:39:37.183Z,53.10
2018-09-13T03:40:41.652Z,53.00
2018-09-13T03:41:46.124Z,53.10
2018-09-13T03:42:50.430Z,53.00
2018-09-13T03:43:55.603Z,53.00
2018-09-13T03:45:00.843Z,53.00
2018-09-13T03:46:06.210Z,53.00
2018-09-13T03:47:10.578Z,53.00
2018-09-13T03:48:15.012Z,52.90
2018-09-13T03:49:19.619Z,53.00
2018-09-13T03:50:24.096Z,52.90
2018-09-13T03:51:28.459Z,52.90
2018-09-13T03:52:32.983Z,53.00
2018-09-13T03:53:37.434Z,53.00
2018-09-13T03:54:42.675Z,53.00
2018-09-13T03:55:47.179Z,53.00
2018-09-13T03:56:52.395Z,52.90
2018-09-13T03:57:56.656Z,52.90
2018-09-13T03:59:00.950Z,52.90
2018-09-13T04:00:05.653Z,52.90
2018-09-13T04:01:10.900Z,52.90
2018-09-13T04:02:16.161Z,52.80
2018-09-13T04:03:20.531Z,52.90
2018-09-13T04:04:25.774Z,53.60
2018-09-13T04:05:30.444Z,52.90
2018-09-13T04:06:35.767Z,52.80
2018-09-13T04:07:40.349Z,52.80
2018-09-13T04:08:44.913Z,52.80
2018-09-13T04:09:50.153Z,52.80
2018-09-13T04:10:54.654Z,52.80
2018-09-13T04:11:59.019Z,52.80
2018-09-13T04:13:03.415Z,52.80
2018-09-13T04:14:07.941Z,52.90
2018-09-13T04:15:12.302Z,52.90
2018-09-13T04:16:16.816Z,52.90
2018-09-13T04:17:21.153Z,52.90
2018-09-13T04:18:25.527Z,52.90
2018-09-13T04:19:29.968Z,52.90
2018-09-13T04:20:34.237Z,52.90
2018-09-13T04:21:38.583Z,52.90
2018-09-13T04:22:42.935Z,52.80
2018-09-13T04:23:47.203Z,52.80
2018-09-13T04:24:51.669Z,52.90
2018-09-13T04:25:56.860Z,52.90
2018-09-13T04:27:01.565Z,52.90
2018-09-13T04:28:07.077Z,52.90
2018-09-13T04:29:11.389Z,52.90
2018-09-13T04:30:15.682Z,52.90
2018-09-13T04:31:20.005Z,52.80
2018-09-13T04:32:24.255Z,53.50
2018-09-13T04:33:28.580Z,52.70
2018-09-13T04:34:32.938Z,52.80
2018-09-13T04:35:37.559Z,52.80
2018-09-13T04:36:42.747Z,52.80
2018-09-13T04:37:47.273Z,52.80
2018-09-13T04:38:51.630Z,52.80
2018-09-13T04:39:56.882Z,52.80
2018-09-13T04:41:01.373Z,52.90
2018-09-13T04:42:05.997Z,52.80
2018-09-13T04:43:10.332Z,52.80
2018-09-13T04:44:15.547Z,52.80
2018-09-13T04:45:20.830Z,52.80
2018-09-13T04:46:25.364Z,52.80
2018-09-13T04:47:30.539Z,53.50
2018-09-13T04:48:35.801Z,52.90
2018-09-13T04:49:40.162Z,53.00
2018-09-13T04:50:44.675Z,53.00
2018-09-13T04:51:49.936Z,53.10
2018-09-13T04:52:55.286Z,53.10
2018-09-13T04:53:59.689Z,53.20
2018-09-13T04:55:04.221Z,53.20
2018-09-13T04:56:08.626Z,53.20
2018-09-13T04:57:13.968Z,53.10
2018-09-13T04:58:18.610Z,53.10
2018-09-13T04:59:23.046Z,53.10
2018-09-13T05:00:27.470Z,53.00
2018-09-13T05:01:32.713Z,53.00
2018-09-13T05:02:37.089Z,53.00
2018-09-13T05:03:41.596Z,53.00
2018-09-13T05:04:45.927Z,53.00
2018-09-13T05:05:50.314Z,53.00
2018-09-13T05:06:54.646Z,52.90
2018-09-13T05:07:58.928Z,52.90
2018-09-13T05:09:03.334Z,52.90
2018-09-13T05:10:07.657Z,52.90
2018-09-13T05:11:12.959Z,52.90
2018-09-13T05:12:17.502Z,52.90
2018-09-13T05:13:21.942Z,52.90
2018-09-13T05:14:26.292Z,52.80
2018-09-13T05:15:30.808Z,52.80
2018-09-13T05:16:36.112Z,52.80
2018-09-13T05:17:41.030Z,52.80
2018-09-13T05:18:45.322Z,52.80
2018-09-13T05:19:50.595Z,52.80
2018-09-13T05:20:55.859Z,52.80
2018-09-13T05:22:00.182Z,52.70
2018-09-13T05:23:04.603Z,52.70
2018-09-13T05:24:09.108Z,52.70
2018-09-13T05:25:13.572Z,52.70
2018-09-13T05:26:17.993Z,52.70
2018-09-13T05:27:23.269Z,52.70
2018-09-13T05:28:27.884Z,52.70
2018-09-13T05:29:32.398Z,52.70
2018-09-13T05:30:36.770Z,52.70
2018-09-13T05:31:42.151Z,52.70
2018-09-13T05:32:46.484Z,52.60
2018-09-13T05:33:51.127Z,52.50
2018-09-13T05:34:55.738Z,52.50
2018-09-13T05:36:00.195Z,52.50
2018-09-13T05:37:05.515Z,52.60
2018-09-13T05:38:10.385Z,53.20
2018-09-13T05:39:15.684Z,52.50
2018-09-13T05:40:20.130Z,52.50
2018-09-13T05:41:24.631Z,52.50
2018-09-13T05:42:29.006Z,52.50
2018-09-13T05:43:33.663Z,52.50
2018-09-13T05:44:38.958Z,52.70
2018-09-13T05:45:43.399Z,52.40
2018-09-13T05:46:48.653Z,52.40
2018-09-13T05:47:54.425Z,52.40
2018-09-13T05:48:59.809Z,52.30
2018-09-13T05:50:04.493Z,52.40
2018-09-13T05:51:09.236Z,52.30
2018-09-13T05:52:13.455Z,52.30
2018-09-13T05:53:17.861Z,52.30
2018-09-13T05:54:22.098Z,52.30
2018-09-13T05:55:26.612Z,52.20
2018-09-13T05:56:30.957Z,52.20
2018-09-13T05:57:36.230Z,52.20
2018-09-13T05:58:41.450Z,52.30
2018-09-13T05:59:45.846Z,52.20
2018-09-13T06:00:51.093Z,52.30
2018-09-13T06:01:55.429Z,52.30
2018-09-13T06:03:00.647Z,52.30
2018-09-13T06:04:05.366Z,52.30
2018-09-13T06:05:09.674Z,53.00
2018-09-13T06:06:14.200Z,52.40
2018-09-13T06:07:18.904Z,52.40
2018-09-13T06:08:23.274Z,52.30
2018-09-13T06:09:28.646Z,52.40
2018-09-13T06:10:33.311Z,52.40
2018-09-13T06:11:39.808Z,52.40
2018-09-13T06:12:44.189Z,52.40
2018-09-13T06:13:48.548Z,52.40
2018-09-13T06:14:53.023Z,52.40
2018-09-13T06:15:58.227Z,52.30
2018-09-13T06:17:02.776Z,52.30
2018-09-13T06:18:08.016Z,52.30
2018-09-13T06:19:12.542Z,52.40
2018-09-13T06:20:17.074Z,52.40
2018-09-13T06:21:21.465Z,52.40
2018-09-13T06:22:26.073Z,52.40
2018-09-13T06:23:30.606Z,52.50
2018-09-13T06:24:35.097Z,52.50
2018-09-13T06:25:39.395Z,52.50
2018-09-13T06:26:43.820Z,52.50
2018-09-13T06:27:48.066Z,52.50
2018-09-13T06:28:52.416Z,52.50
2018-09-13T06:29:56.759Z,52.40
2018-09-13T06:31:01.276Z,52.40
2018-09-13T06:32:05.834Z,52.50
2018-09-13T06:33:10.236Z,52.50
2018-09-13T06:34:14.749Z,52.40
2018-09-13T06:35:19.114Z,52.50
2018-09-13T06:36:23.696Z,52.40
2018-09-13T06:37:28.952Z,52.40
2018-09-13T06:38:33.282Z,52.40
2018-09-13T06:39:38.551Z,52.40
2018-09-13T06:40:43.838Z,52.40
2018-09-13T06:41:48.286Z,52.50
2018-09-13T06:42:52.604Z,52.50
2018-09-13T06:43:56.911Z,52.50
2018-09-13T06:45:01.363Z,52.40
2018-09-13T06:46:06.717Z,52.50
2018-09-13T06:47:12.215Z,52.50
2018-09-13T06:48:17.748Z,52.50
2018-09-13T06:49:22.955Z,52.50
2018-09-13T06:50:27.229Z,52.50
2018-09-13T06:51:31.494Z,52.60
2018-09-13T06:52:35.854Z,52.60
2018-09-13T06:53:40.198Z,52.60
2018-09-13T06:54:44.527Z,52.60
2018-09-13T06:55:49.739Z,52.70
2018-09-13T06:56:54.166Z,52.70
2018-09-13T06:57:58.485Z,52.60
2018-09-13T06:59:02.850Z,52.60
2018-09-13T07:00:07.215Z,52.60
2018-09-13T07:01:12.432Z,52.60
2018-09-13T07:02:16.794Z,52.60
2018-09-13T07:03:21.976Z,52.60
2018-09-13T07:08:38.256Z,52.50
2018-09-13T07:09:42.675Z,52.50
2018-09-13T07:10:47.203Z,52.50
2018-09-13T07:11:51.564Z,52.50
2018-09-13T07:12:56.628Z,52.50
2018-09-13T07:14:01.756Z,52.50
2018-09-13T07:15:06.944Z,52.50
2018-09-13T07:16:11.285Z,52.50
2018-09-13T07:19:00.245Z,52.50
2018-09-13T07:20:04.762Z,52.50
2018-09-13T07:21:09.208Z,52.50
2018-09-13T07:22:13.669Z,52.40
2018-09-13T07:23:18.042Z,53.10
2018-09-13T07:24:22.455Z,52.40
2018-09-13T07:25:27.639Z,52.40
2018-09-13T07:26:32.065Z,52.40
2018-09-13T07:27:36.589Z,52.40
2018-09-13T07:28:40.936Z,52.40
2018-09-13T07:29:45.400Z,52.40
2018-09-13T07:30:49.947Z,52.30
2018-09-13T07:31:54.278Z,52.30
2018-09-13T07:32:58.710Z,52.30
2018-09-13T07:34:03.212Z,52.20
2018-09-13T07:35:07.758Z,52.20
2018-09-13T07:36:12.107Z,52.20
2018-09-13T07:37:16.616Z,52.30
2018-09-13T07:38:21.088Z,52.20
2018-09-13T07:39:25.922Z,52.10
2018-09-13T07:40:30.877Z,52.10
2018-09-13T07:41:35.519Z,52.10
2018-09-13T07:42:40.859Z,52.10
2018-09-13T07:43:45.587Z,52.00
2018-09-13T07:44:49.982Z,51.80
2018-09-13T07:45:54.287Z,51.70
2018-09-13T07:46:58.678Z,51.60
2018-09-13T07:48:05.459Z,51.50
2018-09-13T07:49:10.230Z,51.50
2018-09-13T07:50:14.524Z,51.50
2018-09-13T07:51:18.893Z,51.60
2018-09-13T07:52:23.331Z,51.50
2018-09-13T07:53:27.937Z,51.40
2018-09-13T07:54:32.284Z,51.50
2018-09-13T07:55:37.087Z,51.50
2018-09-13T07:56:41.719Z,51.40
2018-09-13T07:57:46.436Z,51.20
2018-09-13T07:58:50.963Z,51.00
2018-09-13T07:59:55.487Z,50.80
2018-09-13T08:00:59.979Z,50.90
2018-09-13T08:02:05.480Z,51.00
2018-09-13T08:03:10.247Z,51.00
2018-09-13T08:04:14.605Z,51.00
2018-09-13T08:05:18.815Z,51.10
2018-09-13T08:06:23.268Z,51.10
2018-09-13T08:07:27.991Z,51.20
2018-09-13T08:08:32.618Z,51.10
2018-09-13T08:09:37.191Z,51.10
2018-09-13T08:10:41.672Z,51.10
2018-09-13T08:11:46.132Z,51.20
2018-09-13T08:12:50.599Z,51.10
2018-09-13T08:13:55.058Z,51.10
2018-09-13T08:15:00.293Z,51.10
2018-09-13T08:16:04.593Z,51.00
2018-09-13T08:17:09.229Z,50.90
2018-09-13T08:18:13.543Z,50.90
2018-09-13T08:19:17.998Z,50.80
2018-09-13T08:20:22.227Z,50.80
2018-09-13T08:21:26.729Z,50.80
2018-09-13T08:22:31.412Z,50.80
2018-09-13T08:23:35.851Z,50.80
2018-09-13T08:24:40.268Z,50.70
2018-09-13T08:25:44.775Z,50.70
2018-09-13T08:26:49.163Z,50.70
2018-09-13T08:27:53.592Z,50.70
2018-09-13T08:28:57.983Z,50.60
2018-09-13T08:30:02.536Z,50.60
2018-09-13T08:31:07.398Z,50.60
2018-09-13T08:32:11.718Z,50.60
2018-09-13T08:33:16.308Z,50.50
2018-09-13T08:34:20.576Z,50.50
2018-09-13T08:35:25.032Z,50.50
2018-09-13T08:36:29.594Z,50.40
2018-09-13T08:37:33.940Z,50.40
2018-09-13T08:38:38.288Z,50.40
2018-09-13T08:39:42.769Z,50.40
2018-09-13T08:40:47.052Z,50.40
2018-09-13T08:41:51.725Z,50.40
2018-09-13T08:42:56.239Z,50.50
2018-09-13T08:44:00.506Z,50.40
2018-09-13T08:45:05.056Z,50.40
2018-09-13T08:46:09.449Z,50.40
2018-09-13T08:47:13.821Z,50.50
2018-09-13T08:48:18.117Z,50.40
2018-09-13T08:49:22.397Z,50.40
2018-09-13T08:50:26.839Z,50.40
2018-09-13T08:51:31.332Z,50.40
2018-09-13T08:52:35.770Z,50.30
2018-09-13T08:53:40.207Z,50.30
2018-09-13T08:54:44.801Z,50.30
2018-09-13T08:55:49.206Z,50.30
2018-09-13T08:56:53.694Z,51.00
2018-09-13T08:57:58.167Z,50.30
2018-09-13T08:59:02.496Z,50.30
2018-09-13T09:00:08.253Z,50.20
2018-09-13T09:01:12.693Z,50.30
2018-09-13T09:02:17.148Z,50.30
2018-09-13T09:03:21.518Z,50.30
2018-09-13T09:04:25.906Z,50.20
2018-09-13T09:05:30.420Z,50.30
2018-09-13T09:06:34.929Z,50.10
2018-09-13T09:07:39.137Z,50.00
2018-09-13T09:08:43.485Z,49.90
2018-09-13T09:09:47.978Z,49.80
2018-09-13T09:10:52.598Z,49.70
2018-09-13T09:11:56.955Z,49.70
2018-09-13T09:13:01.405Z,49.70
2018-09-13T09:14:05.813Z,49.70
2018-09-13T09:15:10.225Z,49.70
2018-09-13T09:16:14.633Z,49.60
2018-09-13T09:17:18.946Z,49.70
2018-09-13T09:18:23.260Z,49.70
2018-09-13T09:19:27.535Z,49.70
2018-09-13T09:20:32.095Z,49.70
2018-09-13T09:21:36.779Z,49.60
2018-09-13T09:22:41.180Z,49.70
2018-09-13T09:23:46.145Z,49.70
2018-09-13T09:24:50.802Z,49.70
2018-09-13T09:25:55.051Z,49.70
2018-09-13T09:26:59.655Z,49.70
2018-09-13T09:28:03.903Z,49.70
2018-09-13T09:29:08.523Z,49.70
2018-09-13T09:30:12.840Z,49.70
2018-09-13T09:31:17.450Z,49.70
2018-09-13T09:32:21.911Z,49.70
2018-09-13T09:33:26.697Z,49.70
2018-09-13T09:34:31.116Z,49.70
2018-09-13T09:35:35.652Z,49.70
2018-09-13T09:36:39.931Z,49.70
2018-09-13T09:37:44.437Z,49.70
2018-09-13T09:38:48.971Z,49.80
2018-09-13T09:39:53.348Z,49.70
2018-09-13T09:40:57.733Z,49.70
2018-09-13T09:42:02.320Z,49.70
2018-09-13T09:43:06.786Z,49.60
2018-09-13T09:44:11.867Z,49.60
2018-09-13T09:45:16.272Z,49.50
2018-09-13T09:46:20.733Z,49.50
2018-09-13T09:47:25.049Z,49.50
2018-09-13T09:48:29.698Z,49.50
2018-09-13T09:49:34.641Z,49.50
2018-09-13T09:50:39.054Z,49.50
2018-09-13T09:51:43.509Z,49.40
2018-09-13T09:52:47.876Z,49.40
2018-09-13T09:53:52.348Z,49.40
2018-09-13T09:54:56.611Z,49.30
2018-09-13T09:56:01.188Z,49.20
2018-09-13T09:57:05.517Z,49.20
2018-09-13T09:58:10.013Z,49.10
2018-09-13T09:59:14.403Z,49.00
2018-09-13T10:00:18.716Z,49.00
2018-09-13T10:01:23.201Z,49.00
2018-09-13T10:02:27.520Z,49.00
2018-09-13T10:03:31.920Z,48.90
2018-09-13T10:04:36.322Z,48.80
2018-09-13T10:05:40.709Z,48.70
2018-09-13T10:06:45.166Z,48.80
2018-09-13T10:07:49.580Z,48.80
2018-09-13T10:08:53.947Z,48.80
2018-09-13T10:09:58.304Z,48.70
2018-09-13T10:11:02.756Z,48.80
2018-09-13T10:12:07.136Z,48.70
2018-09-13T10:13:11.585Z,48.60
2018-09-13T10:14:15.871Z,48.40
2018-09-13T10:15:20.268Z,48.40
2018-09-13T10:16:24.472Z,48.50
2018-09-13T10:17:28.678Z,48.40
2018-09-13T10:18:32.886Z,49.00
2018-09-13T10:19:37.299Z,48.30
2018-09-13T10:20:41.784Z,48.40
2018-09-13T10:21:46.114Z,48.30
2018-09-13T10:22:50.533Z,48.20
2018-09-13T10:23:55.090Z,48.20
2018-09-13T10:24:59.402Z,48.20
2018-09-13T10:26:03.917Z,48.30
2018-09-13T10:27:08.386Z,48.20
2018-09-13T10:28:12.883Z,48.10
2018-09-13T10:29:17.437Z,48.10
2018-09-13T10:30:21.799Z,48.10
2018-09-13T10:31:26.231Z,48.10
2018-09-13T10:32:30.780Z,47.80
2018-09-13T10:33:35.297Z,47.40
2018-09-13T10:34:39.788Z,47.50
2018-09-13T10:35:44.151Z,47.50
2018-09-13T10:36:48.553Z,47.50
2018-09-13T10:37:52.933Z,47.60
2018-09-13T10:38:57.235Z,47.60
2018-09-13T10:40:01.679Z,47.70
2018-09-13T10:41:06.017Z,47.70
2018-09-13T10:42:10.335Z,47.60
2018-09-13T10:43:14.764Z,47.70
2018-09-13T10:44:19.159Z,47.60
2018-09-13T10:45:23.554Z,47.60
2018-09-13T10:46:27.758Z,47.60
2018-09-13T10:47:32.210Z,48.20
2018-09-13T10:48:36.643Z,47.60
2018-09-13T10:49:41.099Z,47.60
2018-09-13T10:50:45.327Z,47.60
2018-09-13T10:51:49.722Z,47.60
2018-09-13T10:52:53.959Z,47.70
2018-09-13T10:53:58.374Z,47.70
2018-09-13T10:55:02.839Z,47.60
2018-09-13T10:56:07.331Z,47.70
2018-09-13T10:57:11.733Z,47.80
2018-09-13T10:58:16.020Z,47.60
2018-09-13T10:59:20.414Z,47.60
2018-09-13T11:00:24.803Z,47.70
2018-09-13T11:01:29.083Z,47.60
2018-09-13T11:02:33.525Z,47.60
2018-09-13T11:03:37.781Z,48.20
2018-09-13T11:04:42.057Z,47.60
2018-09-13T11:05:46.492Z,47.50
2018-09-13T11:06:50.747Z,47.50
2018-09-13T11:07:55.260Z,47.50
2018-09-13T11:08:59.529Z,47.50
2018-09-13T11:10:03.904Z,47.30
2018-09-13T11:11:08.344Z,47.30
2018-09-13T11:12:12.760Z,47.30
2018-09-13T11:13:17.107Z,47.30
2018-09-13T11:14:21.582Z,47.30
2018-09-13T11:15:25.861Z,47.30
2018-09-13T11:16:30.708Z,47.30
2018-09-13T11:17:36.754Z,47.30
2018-09-13T11:18:41.140Z,47.30
2018-09-13T11:19:45.493Z,47.30
2018-09-13T11:20:49.910Z,47.30
2018-09-13T11:21:54.293Z,47.10
2018-09-13T11:22:58.702Z,47.10
2018-09-13T11:24:02.991Z,46.90
2018-09-13T11:25:07.266Z,46.70
2018-09-13T11:26:11.586Z,46.50
2018-09-13T11:27:15.798Z,46.10
2018-09-13T11:28:20.050Z,45.90
2018-09-13T11:29:24.348Z,46.50
2018-09-13T11:30:28.651Z,46.10
2018-09-13T11:31:33.166Z,46.20
2018-09-13T11:32:37.606Z,46.30
2018-09-13T11:33:41.858Z,47.00
2018-09-13T11:34:46.239Z,46.40
2018-09-13T11:35:50.488Z,46.50
2018-09-13T11:36:55.511Z,46.50
2018-09-13T11:37:59.832Z,46.50
2018-09-13T11:39:04.337Z,46.60
2018-09-13T11:40:08.813Z,46.80
2018-09-13T11:41:13.177Z,46.50
2018-09-13T11:42:17.948Z,46.60
2018-09-13T11:43:22.351Z,46.60
2018-09-13T11:44:26.954Z,46.60
2018-09-13T11:45:31.424Z,46.60
2018-09-13T11:46:35.758Z,46.60
2018-09-13T11:47:40.211Z,46.60
2018-09-13T11:48:44.594Z,46.60
2018-09-13T11:49:49.263Z,46.60
2018-09-13T11:50:53.686Z,46.60
2018-09-13T11:51:58.090Z,46.60
2018-09-13T11:53:02.528Z,47.20
2018-09-13T11:54:06.869Z,46.60
2018-09-13T11:55:11.271Z,46.60
2018-09-13T11:56:15.505Z,46.50
2018-09-13T11:57:20.423Z,46.50
2018-09-13T11:58:24.892Z,46.50
2018-09-13T11:59:29.234Z,46.40
2018-09-13T12:00:33.511Z,46.20
2018-09-13T12:01:37.717Z,46.10
2018-09-13T12:02:42.133Z,46.10
2018-09-13T12:03:46.373Z,46.10
2018-09-13T12:04:50.840Z,46.10
2018-09-13T12:05:55.270Z,46.00
2018-09-13T12:06:59.652Z,46.00
2018-09-13T12:08:03.934Z,46.00
2018-09-13T12:09:08.517Z,46.10
2018-09-13T12:10:12.810Z,46.10
2018-09-13T12:11:17.083Z,46.10
2018-09-13T12:12:21.528Z,45.90
2018-09-13T12:13:25.807Z,46.50
2018-09-13T12:14:30.372Z,45.70
2018-09-13T12:15:34.912Z,45.60
2018-09-13T12:16:39.191Z,45.60
2018-09-13T12:17:43.621Z,45.60
2018-09-13T12:18:48.095Z,45.50
2018-09-13T12:19:52.384Z,45.40
2018-09-13T12:20:56.818Z,45.30
2018-09-13T12:22:01.155Z,45.40
2018-09-13T12:23:05.617Z,45.30
2018-09-13T12:24:10.074Z,45.20
2018-09-13T12:25:14.518Z,45.30
2018-09-13T12:26:19.745Z,45.30
2018-09-13T12:27:24.219Z,45.20
2018-09-13T12:28:28.589Z,45.30
2018-09-13T12:29:33.077Z,45.20
2018-09-13T12:30:37.552Z,45.20
2018-09-13T12:31:41.904Z,45.20
2018-09-13T12:32:46.363Z,45.20
2018-09-13T12:33:50.822Z,45.30
2018-09-13T12:34:55.196Z,45.30
2018-09-13T12:35:59.779Z,45.20
2018-09-13T12:37:04.220Z,45.10
2018-09-13T12:38:10.678Z,45.10
2018-09-13T12:39:18.764Z,45.10
2018-09-13T12:40:25.049Z,45.00
2018-09-13T12:41:29.747Z,45.00
2018-09-13T12:42:34.732Z,44.90
2018-09-13T12:43:39.164Z,44.80
2018-09-13T12:44:43.617Z,44.80
2018-09-13T12:45:48.174Z,44.80
2018-09-13T12:46:52.603Z,44.70
2018-09-13T12:47:57.338Z,45.20
2018-09-13T12:49:01.651Z,44.50
2018-09-13T12:50:06.105Z,44.40
2018-09-13T12:51:15.032Z,44.40
2018-09-13T12:52:19.603Z,44.40
2018-09-13T12:53:23.934Z,44.50
2018-09-13T12:54:28.479Z,44.60
2018-09-13T12:55:33.022Z,44.60
2018-09-13T12:56:37.623Z,44.50
2018-09-13T12:57:41.977Z,44.50
2018-09-13T12:58:46.367Z,44.50
2018-09-13T12:59:50.859Z,44.50
2018-09-13T13:00:56.565Z,44.50
2018-09-13T13:02:00.910Z,44.50
2018-09-13T13:03:05.377Z,44.50
2018-09-13T13:04:09.864Z,44.40
2018-09-13T13:05:14.263Z,44.40
2018-09-13T13:06:18.518Z,44.40
2018-09-13T13:07:23.017Z,44.40
2018-09-13T13:08:27.331Z,44.50
2018-09-13T13:09:32.173Z,44.50
2018-09-13T13:10:36.596Z,44.50
2018-09-13T13:11:41.030Z,44.50
2018-09-13T13:12:45.257Z,44.50
2018-09-13T13:13:49.491Z,44.50
2018-09-13T13:14:53.813Z,44.50
2018-09-13T13:15:58.294Z,44.50
2018-09-13T13:17:02.804Z,44.50
2018-09-13T13:18:07.194Z,44.50
2018-09-13T13:19:11.637Z,44.50
2018-09-13T13:20:15.947Z,44.60
2018-09-13T13:21:20.413Z,44.60
2018-09-13T13:22:24.823Z,44.60
2018-09-13T13:23:29.166Z,44.60
2018-09-13T13:24:33.516Z,44.60
2018-09-13T13:25:37.916Z,44.50
2018-09-13T13:26:42.231Z,44.50
2018-09-13T13:27:46.647Z,44.40
2018-09-13T13:28:51.032Z,44.40
2018-09-13T13:29:55.451Z,44.40
2018-09-13T13:30:59.787Z,44.30
2018-09-13T13:32:04.195Z,44.30
2018-09-13T13:33:09.355Z,44.40
2018-09-13T13:34:13.747Z,44.40
2018-09-13T13:35:18.044Z,44.40
2018-09-13T13:36:22.551Z,44.40
2018-09-13T13:37:27.496Z,44.50
2018-09-13T13:38:32.013Z,44.50
2018-09-13T13:39:36.299Z,44.60
2018-09-13T13:40:40.642Z,44.60
2018-09-13T13:41:44.957Z,44.60
2018-09-13T13:42:49.291Z,44.60
2018-09-13T13:43:53.767Z,44.60
2018-09-13T13:44:58.169Z,44.50
2018-09-13T13:46:02.540Z,44.60
2018-09-13T13:47:07.060Z,44.50
2018-09-13T13:48:11.486Z,44.50
2018-09-13T13:49:15.949Z,44.60
2018-09-13T13:50:20.383Z,44.60
2018-09-13T13:51:24.909Z,44.60
2018-09-13T13:52:29.284Z,44.60
2018-09-13T13:53:33.800Z,44.50
2018-09-13T13:54:38.216Z,44.40
2018-09-13T13:55:42.644Z,44.40
2018-09-13T13:56:47.072Z,44.40